Overview Statistics Trail Chart Weather Telemetry Raw packets
 

This is the latest recevied weather packets stored in our database for station/object KJ6HT. If no packets are shown the sender has not sent any weather packets the latest 10 day(s).

<< 27 28 29 30 31 32 33 >>
Time Temp. Humidity Pressure Rain* Wind** Luminosity Snow
1787987768 27.78° C 53% 1009.3 hPa 0 mm - - -
1787986851 29.44° C 48% 1009.3 hPa 0 mm - - -
1787985914 29.44° C 48% 1009.3 hPa 0 mm - - -
1787985067 28.33° C 50% 1009.2 hPa 0 mm - - -
1787984131 29.44° C 48% 1009 hPa 0 mm - - -
1787983275 30° C 46% 1008.9 hPa 0 mm - - -
1787982339 30° C 47% 1009 hPa 0 mm - - -
1787981415 29.44° C 50% 1009 hPa 0 mm - - -
1787980570 30° C 48% 1008.9 hPa 0 mm - - -
1787979636 30° C 48% 1008.9 hPa 0 mm - - -
1787978779 30.56° C 47% 1008.9 hPa 0 mm - - -
1787977821 30.56° C 47% 1008.9 hPa 0 mm - - -
1787976969 30.56° C 47% 1008.8 hPa 0 mm - - -
1787976059 31.11° C 45% 1008.6 hPa 0 mm - - -
1787975133 31.11° C 46% 1008.4 hPa 0 mm - - -
1787974278 31.67° C 45% 1008.1 hPa 0 mm - - -
1787973338 31.67° C 46% 1008 hPa 0 mm - - -
1787972403 31.67° C 46% 1007.9 hPa 0 mm - - -
1787971559 32.22° C 44% 1007.7 hPa 0 mm - - -
1787970603 32.78° C 43% 1007.7 hPa 0 mm - - -
1787969763 33.33° C 42% 1007.7 hPa 0 mm - - -
1787968811 33.89° C 42% 1007.8 hPa 0 mm - - -
1787967015 33.89° C 43% 1007.8 hPa 0 mm - - -
1787966170 34.44° C 43% 1007.7 hPa 0 mm - - -
1787965249 35° C 41% 1007.5 hPa 0 mm - - -

* Rain latest hour (hover to see other rain measurements)
** Current wind speed in m/s (hover to see current wind gust speed)